Avoca, WI

9:40 PM CST on December 22, 2014 (GMT -0600)
Sweet Rock Field | Change Station
CLOSE
Current Station
Personal Weather Station
Location: Avoca, WI
Elevation: 1158 ft
Nearby Weather Stations

Elev 1158 ft 43.14 °N, 90.29 °W | Updated 56 seconds ago

Overcast
Overcast
34.9 °F
Feels Like 32 °F
N
3.8
Wind Variable Wind from East
Gusts 5.4 mph

Today
High -- | Low -- °F
--% Chance of Precip.
Yesterday
High -- | Low -- °F
Precip. -- in
7:30 AM 4:29 PM
New Moon, 2% visible
Pressure 29.60 in
Visibility 4.0 miles
Clouds Overcast 700 ft
Windchill 32 °F
Dew Point 32 °F
Humidity 89%
Rainfall 0.11 in
Snow Depth Not available.
UV 0 out of 12
Pollen .10 out of 12
Air Quality Not available.
Flu Activity Not available.
SPECI KLNR 230323Z AUTO 08012KT 4SM HZ OVC007 04/01 A2960 RMK AO2 T00440011

More Conditions Fewer Conditions

Pressure 29.60 in
Visibility 4.0 miles
Clouds Overcast 700 ft
Windchill 32 °F
Dew Point 32 °F
Humidity 89%
Rainfall 0.11 in
Snow Depth Not available.
UV 0 out of 12
Pollen .10 out of 12
Air Quality Not available.
Flu Activity Not available.
SPECI KLNR 230323Z AUTO 08012KT 4SM HZ OVC007 04/01 A2960 RMK AO2 T00440011

More Conditions Fewer Conditions

10-Day Weather Forecast

Almanac

Astronomy

Dec. 22, 2014 Rise Set
Actual Time
Civil Twilight
Nautical Twilight
Astronomical Twilight
Moon
Length of Visible Light
Length of Day
Tomorrow will be .
, % of the Moon is Illuminated

Today's Extremes

State Highs State Lows

Community

WunderPhotos

Upload Photos

1,779,764 photos uploaded!

WunderBlogs® & News

Nearby

Air Quality

  Air Quality AQ Index Pollutant
Not available.

Snow Depth

Station Depth Elevation

Earthquake Activity

City Distance Mag. Time & Date
Minimum magnitude displayed is 2.5.

Coastal Water Temperatures

Place Temperature

Nearby Weather Stations